Time;durP1;ratioP1;P1;durP2;ratioP2;P2;SDS_P1;SDS_P2;PMS_P1;PMS_P2;Temp;Humidity;BMP_temperature;BMP_pressure;BME280_temperature;BME280_humidity;BME280_pressure;Samples;Min_cycle;Max_cycle;Signal;HPM_P1;HPM_P2
2023/12/18 00:00:39;;;;;;;17.03;9.27;;;;;;;0.53;100.00;62970.97;5051039;28;20197;-53
2023/12/18 00:03:05;;;;;;;15.77;9.60;;;;;;;0.46;100.00;62960.94;5052122;28;20217;-54
2023/12/18 00:05:31;;;;;;;16.20;8.87;;;;;;;0.45;100.00;62959.84;5051811;28;20223;-53
2023/12/18 00:07:57;;;;;;;16.03;9.80;;;;;;;0.45;100.00;62960.38;5034127;28;20705;-52
2023/12/18 00:10:22;;;;;;;17.77;9.73;;;;;;;0.59;100.00;62975.56;5051868;28;20180;-55
2023/12/18 00:12:48;;;;;;;16.23;10.37;;;;;;;0.70;100.00;62984.44;5051538;28;20213;-52
2023/12/18 00:15:13;;;;;;;17.87;9.80;;;;;;;0.70;100.00;62989.41;5051876;28;20634;-52
2023/12/18 00:17:39;;;;;;;17.90;10.00;;;;;;;0.90;100.00;63008.59;5051711;28;20581;-57
2023/12/18 00:20:05;;;;;;;15.27;9.17;;;;;;;0.90;100.00;63008.06;5051769;28;20177;-54
2023/12/18 00:22:31;;;;;;;16.57;8.90;;;;;;;0.70;100.00;62986.94;5051751;28;20296;-52
2023/12/18 00:24:57;;;;;;;19.03;10.33;;;;;;;0.61;100.00;62980.19;5051553;28;20216;-55
2023/12/18 00:27:22;;;;;;;19.77;10.57;;;;;;;0.45;100.00;62959.84;5051384;28;20247;-54
2023/12/18 00:29:48;;;;;;;18.33;10.70;;;;;;;0.62;100.00;62975.78;5051587;28;20251;-54
2023/12/18 00:32:13;;;;;;;18.20;10.87;;;;;;;0.51;100.00;62966.88;5051408;28;20205;-54
2023/12/18 00:34:43;;;;;;;17.50;9.87;;;;;;;0.46;100.00;62961.47;5051399;28;20220;-54
2023/12/18 00:37:08;;;;;;;19.17;10.07;;;;;;;0.61;100.00;62977.72;5051311;28;20690;-54
2023/12/18 00:39:35;;;;;;;18.40;10.10;;;;;;;0.49;100.00;62964.72;5051374;28;20201;-53
2023/12/18 00:42:00;;;;;;;18.47;10.20;;;;;;;0.44;100.00;62958.78;5051159;28;20303;-54
2023/12/18 00:44:25;;;;;;;16.60;10.00;;;;;;;0.48;100.00;62963.09;5051523;28;20273;-53
2023/12/18 00:46:51;;;;;;;16.57;9.53;;;;;;;0.60;100.00;62973.63;5051194;28;20205;-53
2023/12/18 00:49:16;;;;;;;16.57;11.00;;;;;;;0.49;100.00;62966.66;5051303;28;20236;-55
2023/12/18 00:51:42;;;;;;;20.50;10.13;;;;;;;0.46;100.00;62959.00;5051152;28;20209;-55
2023/12/18 00:54:08;;;;;;;14.97;9.47;;;;;;;0.56;100.00;62969.28;5051391;28;20585;-54
2023/12/18 00:56:33;;;;;;;21.33;10.87;;;;;;;0.58;100.00;62976.41;5051189;28;20213;-59
2023/12/18 00:58:59;;;;;;;21.53;10.63;;;;;;;0.67;100.00;62981.19;5051158;28;20707;-53
2023/12/18 01:01:24;;;;;;;18.60;10.60;;;;;;;0.72;100.00;62986.63;5050962;28;20204;-53
2023/12/18 01:03:50;;;;;;;16.77;9.53;;;;;;;1.06;100.00;63025.38;5050997;28;20208;-52
2023/12/18 01:06:15;;;;;;;18.93;9.93;;;;;;;0.86;100.00;63001.78;5050918;28;20185;-53
2023/12/18 01:08:41;;;;;;;17.50;9.23;;;;;;;0.64;100.00;62980.97;5051278;28;20217;-53
2023/12/18 01:11:06;;;;;;;15.97;9.53;;;;;;;0.35;100.00;62947.09;5050994;28;20182;-53
2023/12/18 01:13:32;;;;;;;19.03;9.33;;;;;;;0.44;100.00;62958.78;5051157;28;20221;-54
2023/12/18 01:15:58;;;;;;;17.23;9.63;;;;;;;0.31;100.00;62944.69;5051009;28;20243;-53
2023/12/18 01:18:24;;;;;;;15.43;9.57;;;;;;;0.37;100.00;62954.19;5050732;28;20217;-56
2023/12/18 01:20:49;;;;;;;16.00;9.63;;;;;;;0.56;100.00;62971.75;5050859;28;20189;-54
2023/12/18 01:23:16;;;;;;;14.20;9.50;;;;;;;0.48;100.00;62960.63;5033088;28;20221;-55
2023/12/18 01:25:41;;;;;;;17.40;9.23;;;;;;;0.56;100.00;62969.28;5050655;28;20185;-55
2023/12/18 01:28:07;;;;;;;15.97;10.13;;;;;;;0.50;100.00;62965.28;5050921;28;20624;-53
2023/12/18 01:30:33;;;;;;;16.90;9.23;;;;;;;0.38;100.00;62952.81;5032940;28;20193;-54
2023/12/18 01:32:58;;;;;;;16.23;9.43;;;;;;;0.61;100.00;62979.66;5050629;28;20316;-55
2023/12/18 01:35:24;;;;;;;13.43;8.47;;;;;;;0.47;100.00;62957.59;5050639;28;20697;-53
2023/12/18 01:37:49;;;;;;;16.53;8.63;;;;;;;0.30;100.00;62944.16;5050812;28;20576;-55
2023/12/18 01:40:15;;;;;;;14.77;8.57;;;;;;;0.45;100.00;62957.38;5050539;28;20187;-52
2023/12/18 01:42:44;;;;;;;14.47;8.60;;;;;;;0.29;100.00;62942.53;5050548;28;20211;-52
2023/12/18 01:45:10;;;;;;;16.33;9.00;;;;;;;0.24;100.00;62939.59;5050429;28;20272;-52
2023/12/18 01:47:36;;;;;;;13.73;7.80;;;;;;;0.21;100.00;62934.41;5050437;28;20639;-52
2023/12/18 01:50:03;;;;;;;14.43;8.50;;;;;;;0.26;100.00;62939.81;5032495;28;20655;-53
2023/12/18 01:52:29;;;;;;;16.27;8.67;;;;;;;0.44;100.00;62958.78;5050460;28;20205;-55
2023/12/18 01:54:56;;;;;;;15.63;8.97;;;;;;;0.39;100.00;62955.81;5050495;28;20212;-53
2023/12/18 01:57:23;;;;;;;14.90;8.93;;;;;;;0.61;100.00;62975.25;5050325;28;20234;-53
2023/12/18 01:59:50;;;;;;;16.57;9.57;;;;;;;0.45;100.00;62960.38;5032737;28;20264;-52
2023/12/18 02:02:16;;;;;;;17.03;10.23;;;;;;;0.53;100.00;62966.56;5050356;28;20198;-51
2023/12/18 02:04:43;;;;;;;15.90;8.73;;;;;;;0.48;100.00;62963.09;5050323;28;20272;-52
2023/12/18 02:07:09;;;;;;;14.73;8.13;;;;;;;0.28;100.00;62939.50;5050272;28;20209;-52
2023/12/18 02:09:35;;;;;;;15.30;8.47;;;;;;;0.15;100.00;62922.41;5050091;28;20197;-52
2023/12/18 02:12:01;;;;;;;15.87;9.50;;;;;;;0.15;100.00;62927.91;5053409;28;20721;-55
2023/12/18 02:14:27;;;;;;;14.53;8.23;;;;;;;0.22;100.00;62934.94;5053694;28;20573;-54
2023/12/18 02:16:52;;;;;;;15.13;7.90;;;;;;;0.30;100.00;62944.16;5046612;22;20220;-54
2023/12/18 02:19:32;;;;;;;16.07;8.60;;;;;;;0.23;100.00;62936.56;5073819;28;20639;-56
2023/12/18 02:21:58;;;;;;;12.20;7.87;;;;;;;0.26;100.00;62937.34;5068069;28;20213;-54
2023/12/18 02:24:24;;;;;;;14.77;7.77;;;;;;;0.25;100.00;62938.19;5053633;28;20247;-53
2023/12/18 02:26:50;;;;;;;16.23;7.00;;;;;;;0.32;100.00;62943.84;5053270;28;20306;-52
2023/12/18 02:29:16;;;;;;;15.07;8.10;;;;;;;0.38;100.00;62952.28;5053389;28;20181;-53
2023/12/18 02:31:42;;;;;;;12.17;7.10;;;;;;;0.27;100.00;62940.34;5053661;28;20271;-52
2023/12/18 02:34:08;;;;;;;12.23;7.47;;;;;;;0.24;100.00;62935.19;5053292;28;20269;-53
2023/12/18 02:36:33;;;;;;;12.60;6.90;;;;;;;0.28;100.00;62941.44;5051685;28;20266;-55
2023/12/18 02:38:59;;;;;;;11.23;6.33;;;;;;;0.20;100.00;62932.78;5050964;28;20635;-52
2023/12/18 02:41:24;;;;;;;11.60;6.50;;;;;;;0.08;100.00;62920.34;5051105;28;20189;-53
2023/12/18 02:43:50;;;;;;;11.50;7.17;;;;;;;0.14;100.00;62926.28;5050992;28;20284;-54
2023/12/18 02:46:15;;;;;;;12.57;6.80;;;;;;;0.16;100.00;62928.44;5050864;28;20189;-54
2023/12/18 02:48:41;;;;;;;11.53;7.07;;;;;;;0.19;100.00;62929.75;5050887;28;20206;-53
2023/12/18 02:51:07;;;;;;;10.07;7.10;;;;;;;0.25;100.00;62938.19;5051472;28;20190;-53
2023/12/18 02:53:33;;;;;;;11.80;7.47;;;;;;;0.33;100.00;62947.41;5035336;28;20205;-54
2023/12/18 02:55:58;;;;;;;14.13;7.73;;;;;;;0.32;100.00;62946.31;5052987;28;20246;-53
2023/12/18 02:58:24;;;;;;;11.37;7.27;;;;;;;0.37;100.00;62951.19;5052967;28;20217;-52
2023/12/18 03:00:50;;;;;;;13.27;7.77;;;;;;;0.41;100.00;62956.06;5053006;28;20182;-53
2023/12/18 03:03:15;;;;;;;12.53;7.50;;;;;;;0.42;100.00;62957.16;5053159;28;20584;-56
2023/12/18 03:05:41;;;;;;;11.03;6.63;;;;;;;0.41;100.00;62955.50;5052856;28;20640;-55
2023/12/18 03:08:07;;;;;;;13.80;6.90;;;;;;;0.51;100.00;62966.34;5052649;28;20220;-54
2023/12/18 03:10:32;;;;;;;11.17;7.00;;;;;;;0.44;100.00;62956.28;5052854;28;20194;-55
2023/12/18 03:12:58;;;;;;;12.27;6.77;;;;;;;0.38;100.00;62952.28;5052760;28;20212;-52
2023/12/18 03:15:23;;;;;;;13.97;7.60;;;;;;;0.34;100.00;62947.94;5052650;28;20746;-53
2023/12/18 03:17:49;;;;;;;11.80;6.87;;;;;;;0.41;100.00;62955.50;5052557;28;20202;-55
2023/12/18 03:20:14;;;;;;;10.90;6.50;;;;;;;0.43;100.00;62957.69;5052654;28;20194;-52
2023/12/18 03:22:40;;;;;;;12.37;7.23;;;;;;;0.24;100.00;62937.13;5033546;28;20213;-53
2023/12/18 03:25:06;;;;;;;9.23;6.60;;;;;;;0.20;100.00;62935.25;5052774;28;20197;-52
2023/12/18 03:27:31;;;;;;;13.43;7.00;;;;;;;0.35;100.00;62946.53;5052844;28;20208;-52
2023/12/18 03:29:57;;;;;;;9.97;6.30;;;;;;;0.33;100.00;62944.91;5052628;28;20244;-54
2023/12/18 03:32:22;;;;;;;10.20;6.43;;;;;;;0.46;100.00;62960.94;5052535;28;20208;-54
2023/12/18 03:34:48;;;;;;;11.67;6.77;;;;;;;0.34;100.00;62945.47;5052410;28;20228;-54
2023/12/18 03:37:13;;;;;;;11.23;6.37;;;;;;;0.21;100.00;62933.84;5066146;22;20251;-54
2023/12/18 03:39:39;;;;;;;10.00;6.40;;;;;;;0.26;100.00;62936.81;5072620;28;20307;-54
2023/12/18 03:42:05;;;;;;;12.93;6.77;;;;;;;0.02;100.00;62908.34;5066273;28;20213;-52
2023/12/18 03:44:30;;;;;;;11.57;6.63;;;;;;;0.08;100.00;62920.34;5052412;28;20201;-53
2023/12/18 03:46:57;;;;;;;13.70;6.10;;;;;;;-0.01;100.00;62908.13;5043812;22;20220;-52
2023/12/18 03:49:23;;;;;;;9.53;5.57;;;;;;;0.06;100.00;62918.19;5072160;28;20286;-53
2023/12/18 03:51:49;;;;;;;10.93;6.03;;;;;;;0.08;100.00;62919.78;5078273;22;20206;-53
2023/12/18 03:54:15;;;;;;;13.53;6.43;;;;;;;0.16;100.00;62928.44;5054127;28;20229;-54
2023/12/18 03:56:40;;;;;;;12.60;6.70;;;;;;;0.08;100.00;62919.78;5076502;22;20705;-53
2023/12/18 03:59:06;;;;;;;10.93;6.33;;;;;;;0.16;100.00;62928.44;5051670;28;20239;-55
2023/12/18 04:01:36;;;;;;;12.97;6.13;;;;;;;0.33;100.00;62947.41;5052123;28;20280;-54
2023/12/18 04:04:02;;;;;;;11.17;6.23;;;;;;;0.23;100.00;62933.53;5051773;28;20246;-55
2023/12/18 04:06:28;;;;;;;10.83;6.47;;;;;;;0.11;100.00;62923.56;5052104;28;20197;-57
2023/12/18 04:08:54;;;;;;;11.13;6.20;;;;;;;0.13;100.00;62922.72;5051998;28;20236;-51
2023/12/18 04:11:21;;;;;;;14.47;6.93;;;;;;;0.13;100.00;62922.72;5051615;28;20196;-55
2023/12/18 04:13:48;;;;;;;11.53;6.40;;;;;;;0.10;100.00;62922.50;5034105;28;20682;-54
2023/12/18 04:16:14;;;;;;;11.30;7.23;;;;;;;0.11;100.00;62925.50;5051643;28;20216;-53
2023/12/18 04:18:39;;;;;;;10.87;6.10;;;;;;;0.17;100.00;62927.06;5051571;28;20205;-53
2023/12/18 04:21:05;;;;;;;12.60;7.53;;;;;;;0.17;100.00;62929.53;5050366;28;20642;-54
2023/12/18 04:23:30;;;;;;;13.43;7.73;;;;;;;0.54;100.00;62969.59;5051661;28;20563;-52
2023/12/18 04:25:56;;;;;;;12.63;6.93;;;;;;;0.49;100.00;62964.19;5051577;28;20563;-53
2023/12/18 04:28:21;;;;;;;12.23;7.73;;;;;;;0.42;100.00;62954.13;5051538;28;20213;-53
2023/12/18 04:30:47;;;;;;;11.43;7.10;;;;;;;0.43;100.00;62955.19;5051794;28;20320;-56
2023/12/18 04:33:12;;;;;;;13.77;8.27;;;;;;;0.30;100.00;62946.09;5051052;28;20346;-52
2023/12/18 04:35:38;;;;;;;13.10;6.73;;;;;;;0.19;100.00;62931.69;5051466;28;20216;-53
2023/12/18 04:38:03;;;;;;;9.67;6.60;;;;;;;0.19;100.00;62932.25;5051600;28;20330;-54
2023/12/18 04:40:29;;;;;;;11.53;6.80;;;;;;;0.13;100.00;62925.19;5051597;28;20302;-58
2023/12/18 04:42:55;;;;;;;13.20;6.80;;;;;;;0.02;100.00;62913.31;5051296;28;20275;-53
2023/12/18 04:45:20;;;;;;;11.70;6.80;;;;;;;0.12;100.00;62924.13;5033572;28;20679;-51
2023/12/18 04:47:46;;;;;;;11.93;7.20;;;;;;;0.04;100.00;62916.00;5051703;28;20217;-53
2023/12/18 04:50:13;;;;;;;11.33;6.27;;;;;;;0.03;100.00;62914.91;5051175;28;20192;-56
2023/12/18 04:52:39;;;;;;;12.77;6.93;;;;;;;0.18;100.00;62930.63;5051644;28;20229;-53
2023/12/18 04:55:05;;;;;;;12.23;7.03;;;;;;;0.13;100.00;62922.72;5051078;28;20702;-52
2023/12/18 04:57:31;;;;;;;12.33;6.50;;;;;;;0.18;100.00;62928.16;5051475;28;20232;-56
2023/12/18 04:59:57;;;;;;;12.70;6.30;;;;;;;0.25;100.00;62936.25;5051133;28;20659;-53
2023/12/18 05:02:22;;;;;;;11.87;7.13;;;;;;;0.28;100.00;62941.44;5050947;28;20224;-53
2023/12/18 05:04:48;;;;;;;13.03;6.67;;;;;;;0.26;100.00;62936.81;5050879;28;20193;-52
2023/12/18 05:07:14;;;;;;;11.87;6.30;;;;;;;0.19;100.00;62929.22;5051059;28;20210;-53
2023/12/18 05:09:39;;;;;;;11.13;6.10;;;;;;;-0.01;100.00;62911.13;5051055;28;20261;-54
2023/12/18 05:12:05;;;;;;;9.53;5.80;;;;;;;-0.04;100.00;62909.81;5033393;28;20201;-54
2023/12/18 05:14:31;;;;;;;11.13;6.27;;;;;;;0.03;100.00;62914.91;5050792;28;20278;-54
2023/12/18 05:16:57;;;;;;;12.07;6.33;;;;;;;0.15;100.00;62927.34;5033177;28;20296;-55
2023/12/18 05:19:23;;;;;;;14.50;7.07;;;;;;;0.21;100.00;62931.94;5050955;28;20268;-54
2023/12/18 05:21:48;;;;;;;12.00;6.83;;;;;;;0.25;100.00;62938.19;5055874;22;20231;-53
2023/12/18 05:24:14;;;;;;;10.43;6.40;;;;;;;0.36;100.00;62950.09;5031051;28;20289;-54
2023/12/18 05:26:39;;;;;;;11.87;7.90;;;;;;;0.41;100.00;62958.00;5010340;28;20250;-55
2023/12/18 05:29:05;;;;;;;13.83;8.17;;;;;;;0.24;100.00;62937.13;5011223;28;20723;-53
2023/12/18 05:31:30;;;;;;;12.33;8.53;;;;;;;0.20;100.00;62933.34;5011148;28;20198;-56
2023/12/18 05:33:57;;;;;;;14.33;8.03;;;;;;;0.13;100.00;62925.75;4993625;28;20195;-56
2023/12/18 05:36:22;;;;;;;16.00;9.07;;;;;;;0.13;100.00;62925.19;5010878;28;20211;-54
2023/12/18 05:38:48;;;;;;;14.27;8.63;;;;;;;0.16;100.00;62925.97;5010948;28;20209;-54
2023/12/18 05:41:13;;;;;;;15.00;8.63;;;;;;;0.13;100.00;62925.19;5011045;28;20249;-55
2023/12/18 05:43:39;;;;;;;16.37;9.50;;;;;;;0.10;100.00;62921.97;5010983;28;20221;-53
2023/12/18 05:46:05;;;;;;;17.60;10.30;;;;;;;1.23;100.00;63043.81;5013083;28;20195;-54
2023/12/18 05:48:30;;;;;;;17.17;9.50;;;;;;;0.85;100.00;63000.69;5014406;28;20206;-53
2023/12/18 05:50:56;;;;;;;15.83;9.17;;;;;;;0.74;100.00;62993.75;5014375;28;20576;-54
2023/12/18 05:53:21;;;;;;;15.23;9.40;;;;;;;0.60;100.00;62976.66;5014025;28;20608;-55
2023/12/18 05:55:47;;;;;;;16.80;9.23;;;;;;;0.54;100.00;62967.66;4996708;28;20213;-56
2023/12/18 05:58:12;;;;;;;14.53;8.83;;;;;;;0.60;100.00;62973.63;5014568;28;20368;-54
2023/12/18 06:00:38;;;;;;;14.17;8.63;;;;;;;0.65;100.00;62979.56;5014620;28;20259;-54
2023/12/18 06:03:04;;;;;;;16.30;9.67;;;;;;;0.72;100.00;62989.09;5014549;28;20610;-54
2023/12/18 06:05:30;;;;;;;19.50;9.07;;;;;;;0.65;100.00;62983.97;5014195;28;20206;-54
2023/12/18 06:07:55;;;;;;;18.40;10.40;;;;;;;0.19;100.00;62931.69;4996636;28;20210;-53
2023/12/18 06:10:21;;;;;;;19.23;10.13;;;;;;;0.04;100.00;62918.50;5014391;28;20660;-54
2023/12/18 06:12:46;;;;;;;21.30;10.73;;;;;;;0.25;100.00;62940.66;5014144;28;20210;-54
2023/12/18 06:15:12;;;;;;;18.87;10.37;;;;;;;0.29;100.00;62942.53;5014302;28;20206;-54
2023/12/18 06:17:37;;;;;;;16.23;9.77;;;;;;;0.38;100.00;62949.78;5013837;28;20723;-56
2023/12/18 06:20:05;;;;;;;20.93;10.80;;;;;;;0.61;100.00;62977.72;5013996;28;20612;-54
2023/12/18 06:22:31;;;;;;;20.67;10.70;;;;;;;0.56;100.00;62971.75;4996982;28;20703;-53
2023/12/18 06:24:57;;;;;;;19.27;10.43;;;;;;;0.45;100.00;62962.31;5014039;28;20241;-54
2023/12/18 06:27:22;;;;;;;18.43;11.13;;;;;;;0.35;100.00;62946.53;5014005;28;20606;-53
2023/12/18 06:29:54;;;;;;;23.80;12.07;;;;;;;0.45;100.00;62962.31;5013946;28;20274;-54
2023/12/18 06:32:20;;;;;;;21.40;11.07;;;;;;;0.45;100.00;62957.38;5012789;28;20576;-55
2023/12/18 06:34:45;;;;;;;21.03;12.33;;;;;;;0.51;100.00;62966.34;5011721;28;20239;-53
2023/12/18 06:37:11;;;;;;;20.73;10.67;;;;;;;0.67;100.00;62983.66;5011465;28;20199;-54
2023/12/18 06:39:36;;;;;;;18.17;10.33;;;;;;;0.82;100.00;62999.94;5011544;28;20187;-53
2023/12/18 06:42:02;;;;;;;19.20;10.63;;;;;;;0.80;100.00;62995.28;5011835;28;20221;-54
2023/12/18 06:44:27;;;;;;;21.70;10.53;;;;;;;0.83;100.00;62999.06;5012692;28;20202;-55
2023/12/18 06:46:53;;;;;;;19.17;10.93;;;;;;;0.91;100.00;63009.66;5013798;28;20754;-54
2023/12/18 06:49:18;;;;;;;20.67;11.00;;;;;;;1.00;100.00;63014.47;5013687;28;20195;-53
2023/12/18 06:51:44;;;;;;;20.67;11.10;;;;;;;1.10;100.00;63030.25;5013591;28;20207;-55
2023/12/18 06:54:10;;;;;;;21.00;11.10;;;;;;;0.96;100.00;63014.56;5013398;28;20589;-54
2023/12/18 06:56:37;;;;;;;20.50;10.97;;;;;;;0.74;100.00;62989.31;5013201;28;20186;-53
2023/12/18 06:59:03;;;;;;;17.70;10.57;;;;;;;0.67;100.00;62983.66;4995954;28;20198;-56
2023/12/18 07:01:28;;;;;;;18.77;11.03;;;;;;;0.64;100.00;62980.44;5013181;28;20190;-54
2023/12/18 07:03:54;;;;;;;21.13;10.73;;;;;;;0.82;100.00;62999.94;5013448;28;20187;-53
2023/12/18 07:06:21;;;;;;;19.40;11.43;;;;;;;0.98;100.00;63016.72;5013468;28;20197;-57
2023/12/18 07:08:46;;;;;;;20.53;12.43;;;;;;;0.87;100.00;63004.81;4995733;28;20273;-54
2023/12/18 07:11:12;;;;;;;22.73;11.67;;;;;;;0.99;100.00;63015.84;5013215;28;20273;-56
2023/12/18 07:13:38;;;;;;;17.23;10.23;;;;;;;1.27;100.00;63043.72;5013336;28;20742;-55
2023/12/18 07:16:05;;;;;;;19.47;10.87;;;;;;;1.47;100.00;63069.84;5013058;28;20316;-54
2023/12/18 07:18:31;;;;;;;21.70;13.57;;;;;;;1.68;100.00;63090.09;5013232;28;20199;-58
2023/12/18 07:20:56;;;;;;;22.23;13.17;;;;;;;1.69;100.00;63091.75;4995484;28;20189;-53
2023/12/18 07:23:22;;;;;;;22.07;12.80;;;;;;;1.64;100.00;63085.78;5011703;28;20735;-54
2023/12/18 07:25:47;;;;;;;22.30;11.37;;;;;;;1.96;100.00;63122.44;5012881;28;20566;-52
2023/12/18 07:28:13;;;;;;;23.43;13.07;;;;;;;2.20;100.00;63148.47;5012990;28;20214;-53
2023/12/18 07:30:39;;;;;;;23.93;12.53;;;;;;;2.43;100.00;63170.94;5013290;28;20190;-54
2023/12/18 07:33:05;;;;;;;23.47;12.27;;;;;;;2.40;100.00;63170.16;5012584;28;20254;-53
2023/12/18 07:35:31;;;;;;;21.50;12.87;;;;;;;2.56;100.00;63185.03;5012872;28;20215;-55
2023/12/18 07:37:57;;;;;;;23.80;13.63;;;;;;;2.64;100.00;63193.19;5012898;28;20225;-54
2023/12/18 07:40:22;;;;;;;21.83;13.50;;;;;;;2.87;100.00;63220.66;5012667;28;20688;-54
2023/12/18 07:42:48;;;;;;;25.07;13.93;;;;;;;3.04;100.00;63237.16;5012870;28;20207;-54
2023/12/18 07:45:13;;;;;;;24.53;14.50;;;;;;;2.69;100.00;63199.16;5012946;28;20551;-55
2023/12/18 07:47:41;;;;;;;25.50;14.00;;;;;;;2.46;100.00;63176.69;4995167;28;20220;-54
2023/12/18 07:50:07;;;;;;;23.93;13.80;;;;;;;3.01;100.00;63236.38;4995653;28;20195;-53
2023/12/18 07:52:33;;;;;;;24.47;13.60;;;;;;;3.13;100.00;63243.91;5013042;28;20693;-54
2023/12/18 07:54:59;;;;;;;22.40;14.23;;;;;;;3.16;100.00;63252.13;4994956;28;20248;-53
2023/12/18 07:57:24;;;;;;;21.70;12.97;;;;;;;3.51;100.00;63290.16;5012870;28;20213;-54
2023/12/18 07:59:50;;;;;;;25.00;14.00;;;;;;;3.71;97.88;63308.84;5012681;28;20621;-54
2023/12/18 08:02:15;;;;;;;22.90;13.40;;;;;;;4.11;95.50;63354.81;5012680;28;20750;-55
2023/12/18 08:04:41;;;;;;;21.20;13.60;;;;;;;4.32;93.52;63377.13;5012333;28;20205;-55
2023/12/18 08:07:06;;;;;;;20.43;12.60;;;;;;;4.60;91.20;63405.63;5012284;28;20216;-55
2023/12/18 08:09:32;;;;;;;22.87;14.47;;;;;;;4.82;90.54;63429.00;5011691;28;20199;-54
2023/12/18 08:11:58;;;;;;;24.07;14.57;;;;;;;5.11;88.85;63463.59;5012371;28;20253;-55
2023/12/18 08:14:24;;;;;;;21.80;13.03;;;;;;;5.28;87.54;63479.06;5012195;28;20206;-53
2023/12/18 08:16:50;;;;;;;20.03;13.03;;;;;;;5.63;84.24;63516.63;5012307;28;20213;-53
2023/12/18 08:19:16;;;;;;;17.70;10.53;;;;;;;5.81;81.73;63539.28;5012028;28;20245;-54
2023/12/18 08:21:42;;;;;;;16.57;10.30;;;;;;;5.81;83.79;63533.75;5011940;28;20210;-55
2023/12/18 08:24:07;;;;;;;17.17;10.23;;;;;;;5.87;83.52;63540.28;5012146;28;20698;-56
2023/12/18 08:26:33;;;;;;;16.23;9.27;;;;;;;6.10;82.18;63564.81;5012114;28;20268;-54
2023/12/18 08:28:59;;;;;;;16.43;9.77;;;;;;;6.40;80.49;63600.53;5011908;28;20195;-55
2023/12/18 08:31:24;;;;;;;17.90;10.90;;;;;;;6.68;77.81;63631.06;4994309;28;20200;-55
2023/12/18 08:33:50;;;;;;;23.07;12.97;;;;;;;6.54;80.58;63620.25;5012239;28;20265;-56
2023/12/18 08:36:15;;;;;;;23.90;13.37;;;;;;;6.86;77.37;63652.09;5011984;28;20243;-57
2023/12/18 08:38:41;;;;;;;27.07;15.93;;;;;;;7.02;79.54;63669.53;5011948;28;20228;-54
2023/12/18 08:41:06;;;;;;;33.80;21.30;;;;;;;7.18;79.26;63687.53;5012089;28;20194;-54
2023/12/18 08:43:32;;;;;;;36.67;21.63;;;;;;;7.47;75.95;63716.66;5010608;28;20263;-55
2023/12/18 08:45:57;;;;;;;44.60;22.73;;;;;;;7.53;75.49;63720.69;5011964;28;20190;-54
2023/12/18 08:48:23;;;;;;;37.17;22.90;;;;;;;7.52;76.74;63721.56;5011763;28;20297;-55
2023/12/18 08:50:48;;;;;;;38.47;22.80;;;;;;;7.62;74.82;63732.50;5011725;28;20190;-55
2023/12/18 08:53:16;;;;;;;36.23;21.70;;;;;;;7.56;73.64;63728.44;5011691;28;20230;-55
2023/12/18 08:55:42;;;;;;;35.80;20.87;;;;;;;7.55;72.99;63725.38;5011280;28;20215;-57
2023/12/18 08:58:09;;;;;;;34.27;21.97;;;;;;;7.39;73.28;63709.91;5011189;28;20213;-55
2023/12/18 09:00:35;;;;;;;33.80;21.57;;;;;;;7.52;77.15;63722.13;4994345;28;20198;-55
2023/12/18 09:03:02;;;;;;;38.23;21.27;;;;;;;7.72;74.38;63740.34;5011821;28;20265;-56
2023/12/18 09:05:28;;;;;;;33.93;19.93;;;;;;;8.15;73.40;63789.81;5011693;28;20214;-54
2023/12/18 09:07:54;;;;;;;32.73;20.13;;;;;;;8.10;72.89;63787.38;5011733;28;20281;-55
2023/12/18 09:10:22;;;;;;;34.00;19.77;;;;;;;8.25;72.25;63801.28;5011635;28;20230;-56
2023/12/18 09:12:54;;;;;;;32.50;20.07;;;;;;;8.27;72.44;63803.47;5011449;28;20214;-55
2023/12/18 09:15:19;;;;;;;30.90;19.13;;;;;;;8.65;69.40;63843.88;5011315;28;20720;-54
2023/12/18 09:17:45;;;;;;;34.53;19.90;;;;;;;8.93;67.36;63877.53;5011181;28;20210;-57
2023/12/18 09:20:11;;;;;;;30.93;19.10;;;;;;;8.90;65.07;63871.75;5011324;28;20195;-55
2023/12/18 09:22:37;;;;;;;31.77;18.97;;;;;;;8.74;65.13;63854.28;5011678;28;20622;-56
2023/12/18 09:25:03;;;;;;;32.50;19.43;;;;;;;8.75;66.24;63854.78;5011270;28;20263;-55
2023/12/18 09:27:30;;;;;;;33.97;20.53;;;;;;;8.75;65.04;63854.78;5023999;22;20291;-53
2023/12/18 09:29:55;;;;;;;37.30;20.17;;;;;;;8.61;66.07;63839.50;5050833;28;20727;-55
2023/12/18 09:32:21;;;;;;;32.07;19.47;;;;;;;8.86;64.63;63867.38;5050909;28;20247;-54
2023/12/18 09:34:47;;;;;;;41.30;21.83;;;;;;;8.79;65.60;63859.72;5050757;28;20584;-55
2023/12/18 09:37:13;;;;;;;34.23;21.50;;;;;;;8.86;65.86;63869.34;5050796;28;20213;-55
2023/12/18 09:39:42;;;;;;;32.77;19.80;;;;;;;8.81;65.21;63861.34;5049374;28;20200;-54
2023/12/18 09:42:11;;;;;;;34.93;20.40;;;;;;;8.71;67.09;63850.44;5032585;28;20213;-54
2023/12/18 09:44:38;;;;;;;36.83;21.07;;;;;;;8.92;66.57;63871.41;5032906;28;20193;-55
2023/12/18 09:47:04;;;;;;;35.10;21.30;;;;;;;9.15;66.98;63896.00;5050687;28;20224;-54
2023/12/18 09:49:31;;;;;;;36.20;22.03;;;;;;;9.43;64.92;63928.59;5050635;28;20207;-54
2023/12/18 09:52:08;;;;;;;34.23;20.50;;;;;;;9.14;63.03;63897.41;5050322;28;20205;-53
2023/12/18 09:54:34;;;;;;;36.83;21.67;;;;;;;8.96;64.56;63878.31;5050236;28;20217;-54
2023/12/18 09:57:02;;;;;;;41.43;23.03;;;;;;;9.15;65.83;63896.00;5050302;28;20696;-54
2023/12/18 09:59:28;;;;;;;34.10;22.07;;;;;;;9.44;64.82;63927.69;5050495;28;20221;-53
2023/12/18 10:01:55;;;;;;;36.70;23.87;;;;;;;9.68;65.22;63956.47;5050227;28;20696;-53
2023/12/18 10:04:21;;;;;;;37.27;23.07;;;;;;;9.71;64.89;63962.25;5050362;28;20198;-55
2023/12/18 10:06:48;;;;;;;36.37;22.53;;;;;;;9.84;64.84;63968.91;5050185;28;20293;-54
2023/12/18 10:09:14;;;;;;;35.93;22.50;;;;;;;9.69;64.31;63959.53;5050214;28;20247;-54
2023/12/18 10:11:44;;;;;;;33.20;22.17;;;;;;;9.94;62.87;63984.34;5050205;28;20300;-54
2023/12/18 10:14:22;;;;;;;39.67;21.67;;;;;;;9.94;62.74;63982.38;5032572;28;20186;-53
2023/12/18 10:16:49;;;;;;;34.03;21.43;;;;;;;9.89;62.62;63976.91;5049717;28;20228;-54
2023/12/18 10:19:15;;;;;;;33.03;21.00;;;;;;;9.94;62.73;63984.88;5047806;28;20236;-54
2023/12/18 10:21:41;;;;;;;37.57;22.03;;;;;;;9.80;62.24;63969.03;5047787;28;20258;-57
2023/12/18 10:24:08;;;;;;;34.53;22.13;;;;;;;9.77;62.85;63963.78;5047414;28;20678;-58
2023/12/18 10:26:35;;;;;;;36.33;21.63;;;;;;;10.02;64.02;63991.13;5047881;28;20201;-55
2023/12/18 10:29:01;;;;;;;32.33;21.80;;;;;;;10.09;63.58;64001.31;5048051;28;20211;-56
2023/12/18 10:31:28;;;;;;;30.70;20.33;;;;;;;10.03;61.75;63994.75;5048868;28;20184;-54
2023/12/18 10:33:54;;;;;;;34.00;20.97;;;;;;;10.02;61.61;63993.09;5018851;28;20193;-55
2023/12/18 10:36:23;;;;;;;38.13;21.80;;;;;;;9.86;62.79;63975.59;5053519;28;20213;-56
2023/12/18 10:38:50;;;;;;;30.87;20.53;;;;;;;9.75;62.98;63961.59;5035680;28;20190;-56
2023/12/18 10:41:18;;;;;;;35.87;22.27;;;;;;;9.79;61.86;63967.94;5035484;28;20357;-54
2023/12/18 10:43:47;;;;;;;34.43;22.03;;;;;;;9.80;62.60;63971.53;5052308;28;20181;-54
2023/12/18 10:46:13;;;;;;;25.27;16.93;;;;;;;12.66;100.00;64278.16;5053218;28;20570;-58
2023/12/18 10:48:41;;;;;;;24.10;16.60;;;;;;;13.93;100.00;64419.00;5053326;28;20212;-54
2023/12/18 10:51:08;;;;;;;30.43;19.50;;;;;;;14.59;75.19;64488.44;5051794;28;20248;-55
2023/12/18 10:53:37;;;;;;;27.43;17.53;;;;;;;15.55;87.75;64594.00;5035295;28;20206;-56
2023/12/18 10:56:04;;;;;;;29.02;20.00;;;;;;;16.31;68.24;64674.53;5035055;28;20225;-56
2023/12/18 10:58:32;;;;;;;36.85;21.00;;;;;;;15.83;60.06;64624.81;5035302;28;20275;-55
2023/12/18 11:00:59;;;;;;;30.08;19.55;;;;;;;16.19;58.80;64663.88;5051853;28;20212;-54
2023/12/18 11:03:26;;;;;;;35.38;21.23;;;;;;;16.19;51.98;64663.88;5035095;28;20209;-55
2023/12/18 11:05:54;;;;;;;35.63;21.77;;;;;;;15.59;51.13;64597.84;5053340;28;20209;-55
2023/12/18 11:08:20;;;;;;;31.92;21.02;;;;;;;14.88;49.96;64520.88;5053169;28;20694;-55
2023/12/18 11:10:46;;;;;;;29.58;22.05;;;;;;;14.11;56.93;64439.31;5052862;28;20707;-55
2023/12/18 11:13:21;;;;;;;30.15;20.83;;;;;;;14.07;54.80;64434.38;5052547;28;20209;-54
2023/12/18 11:15:56;;;;;;;32.78;22.00;;;;;;;13.35;55.74;64353.88;5052623;28;20259;-55